Time;durP1;ratioP1;P1;durP2;ratioP2;P2;SDS_P1;SDS_P2;PMS_P1;PMS_P2;Temp;Humidity;BMP_temperature;BMP_pressure;BME280_temperature;BME280_humidity;BME280_pressure;Samples;Min_cycle;Max_cycle;Signal;HPM_P1;HPM_P2
2022/01/29 00:00:00;;;;;;;5.00;2.17;;;5.10;99.90;;;;;;5046603;28;20037;-49
2022/01/29 00:02:25;;;;;;;4.85;1.70;;;5.10;99.90;;;;;;5038750;28;20044;-49
2022/01/29 00:04:51;;;;;;;4.00;2.28;;;5.00;99.90;;;;;;5068974;28;20029;-50
2022/01/29 00:07:17;;;;;;;6.60;2.80;;;5.10;99.90;;;;;;5072626;28;20024;-47
2022/01/29 00:09:44;;;;;;;3.22;2.28;;;5.10;99.90;;;;;;5069510;28;20031;-51
2022/01/29 00:12:11;;;;;;;6.05;2.10;;;5.10;99.90;;;;;;5068354;28;20442;-50
2022/01/29 00:14:37;;;;;;;6.95;2.60;;;5.10;99.90;;;;;;5074218;28;20079;-49
2022/01/29 00:17:03;;;;;;;5.95;3.70;;;5.10;99.90;;;;;;5071225;28;20074;-49
2022/01/29 00:19:29;;;;;;;9.25;5.03;;;5.10;99.90;;;;;;5068497;28;20025;-51
2022/01/29 00:21:56;;;;;;;5.68;3.63;;;5.10;99.90;;;;;;5069514;28;20040;-48
2022/01/29 00:24:22;;;;;;;6.80;2.72;;;5.10;99.90;;;;;;5036028;28;20036;-48
2022/01/29 00:26:48;;;;;;;4.20;2.20;;;5.10;99.90;;;;;;5072777;28;20078;-47
2022/01/29 00:29:20;;;;;;;8.00;2.63;;;5.10;99.90;;;;;;5001439;28;20115;-47
2022/01/29 00:31:46;;;;;;;2.88;2.10;;;5.20;99.90;;;;;;5072196;28;20472;-49
2022/01/29 00:34:13;;;;;;;5.15;2.22;;;5.10;99.90;;;;;;5068615;28;20120;-48
2022/01/29 00:36:38;;;;;;;3.35;1.52;;;5.10;99.90;;;;;;5068419;28;20063;-46
2022/01/29 00:39:05;;;;;;;3.75;1.73;;;5.10;99.90;;;;;;5071377;28;20063;-51
2022/01/29 00:41:30;;;;;;;3.47;1.83;;;5.10;99.90;;;;;;5071688;28;20028;-50
2022/01/29 00:43:56;;;;;;;5.05;2.80;;;5.10;99.90;;;;;;5071076;28;20078;-48
2022/01/29 00:46:22;;;;;;;4.30;1.70;;;5.10;99.90;;;;;;5000262;28;20500;-51
2022/01/29 00:48:48;;;;;;;6.50;1.73;;;5.20;99.90;;;;;;5068998;28;20484;-49
2022/01/29 00:51:14;;;;;;;3.10;1.92;;;5.20;99.90;;;;;;5016734;28;20036;-51
2022/01/29 00:53:39;;;;;;;4.82;1.85;;;5.20;99.90;;;;;;5051412;28;20472;-46
2022/01/29 00:56:07;;;;;;;4.22;1.50;;;5.20;99.90;;;;;;5068540;28;20036;-49
2022/01/29 00:58:33;;;;;;;4.68;1.63;;;5.10;99.90;;;;;;5068961;28;20036;-49
2022/01/29 01:00:59;;;;;;;7.55;2.08;;;5.20;99.90;;;;;;5071084;28;20452;-49
2022/01/29 01:03:25;;;;;;;5.07;2.42;;;5.10;99.90;;;;;;5068954;28;20060;-51
2022/01/29 01:05:51;;;;;;;9.32;4.63;;;5.20;99.90;;;;;;5067522;28;20025;-48
2022/01/29 01:08:17;;;;;;;6.07;2.97;;;5.20;99.90;;;;;;5053722;28;20392;-49
2022/01/29 01:10:43;;;;;;;7.00;3.90;;;5.20;99.90;;;;;;5069710;28;20032;-47
2022/01/29 01:13:09;;;;;;;5.85;3.33;;;5.20;99.90;;;;;;5035244;28;20037;-48
2022/01/29 01:15:34;;;;;;;4.68;2.60;;;5.20;99.90;;;;;;5012125;28;20099;-52
2022/01/29 01:18:00;;;;;;;4.82;2.67;;;5.20;99.90;;;;;;5049571;28;20042;-47
2022/01/29 01:20:26;;;;;;;6.10;3.25;;;5.20;99.90;;;;;;5073318;28;20488;-49
2022/01/29 01:22:52;;;;;;;5.10;2.97;;;5.10;99.90;;;;;;5068145;28;20043;-48
2022/01/29 01:25:18;;;;;;;6.95;5.03;;;5.20;99.90;;;;;;4972140;28;20544;-52
2022/01/29 01:27:44;;;;;;;7.65;3.92;;;5.20;99.90;;;;;;5067879;28;20059;-48
2022/01/29 01:30:10;;;;;;;9.80;8.80;;;5.10;99.90;;;;;;5055803;28;20060;-47
2022/01/29 01:32:36;;;;;;;10.65;6.00;;;5.10;99.90;;;;;;5054442;28;20033;-48
2022/01/29 01:35:17;;;;;;;5.43;3.67;;;5.10;99.90;;;;;;5049598;28;20049;-49
2022/01/29 01:37:49;;;;;;;4.70;2.53;;;5.00;99.90;;;;;;5036730;28;20041;-48
2022/01/29 01:40:16;;;;;;;6.88;4.00;;;5.00;99.90;;;;;;5045273;28;20033;-49
2022/01/29 01:42:42;;;;;;;7.25;4.60;;;5.00;99.90;;;;;;5068911;28;20598;-52
2022/01/29 01:45:08;;;;;;;4.57;2.42;;;5.00;99.90;;;;;;5049075;28;20150;-48
2022/01/29 01:47:34;;;;;;;4.65;2.22;;;4.90;99.90;;;;;;5048524;28;20041;-51
2022/01/29 01:50:00;;;;;;;3.28;2.45;;;4.90;99.90;;;;;;5047459;28;20590;-49
2022/01/29 01:52:27;;;;;;;4.82;1.88;;;5.00;99.90;;;;;;5047622;28;20151;-49
2022/01/29 01:54:53;;;;;;;4.40;2.17;;;5.00;99.90;;;;;;5048535;28;20135;-50
2022/01/29 01:57:19;;;;;;;4.18;2.15;;;5.00;99.90;;;;;;4999541;28;20174;-50
2022/01/29 01:59:46;;;;;;;5.85;2.25;;;5.00;99.90;;;;;;5030570;28;20493;-47
2022/01/29 02:02:11;;;;;;;4.78;2.30;;;5.10;99.90;;;;;;5014859;28;20040;-50
2022/01/29 02:04:38;;;;;;;4.90;2.53;;;5.10;99.90;;;;;;5048220;28;20520;-50
2022/01/29 02:07:04;;;;;;;6.32;2.65;;;5.10;99.90;;;;;;5049261;28;20517;-50
2022/01/29 02:09:31;;;;;;;4.25;2.42;;;5.10;99.90;;;;;;5045851;28;20590;-50
2022/01/29 02:11:59;;;;;;;9.15;4.07;;;5.10;99.90;;;;;;4987386;28;20038;-50
2022/01/29 02:14:30;;;;;;;9.13;5.32;;;5.10;99.90;;;;;;4990423;28;20155;-46
2022/01/29 02:16:56;;;;;;;11.15;5.55;;;5.10;99.90;;;;;;4999742;28;20052;-49
2022/01/29 02:19:22;;;;;;;4.82;2.38;;;5.00;99.90;;;;;;4989440;28;20046;-50
2022/01/29 02:21:48;;;;;;;6.82;2.85;;;5.00;99.90;;;;;;5006029;28;20038;-46
2022/01/29 02:24:14;;;;;;;4.60;2.20;;;5.00;99.90;;;;;;4988353;28;20037;-50
2022/01/29 02:26:40;;;;;;;3.88;1.88;;;5.00;99.90;;;;;;5009768;28;20068;-48
2022/01/29 02:29:06;;;;;;;4.57;1.83;;;5.00;99.90;;;;;;4975229;28;20056;-48
2022/01/29 02:31:32;;;;;;;4.93;1.98;;;4.90;99.90;;;;;;5008389;28;20482;-50
2022/01/29 02:33:58;;;;;;;5.35;1.85;;;4.90;99.90;;;;;;5007394;28;20918;-50
2022/01/29 02:36:24;;;;;;;6.80;2.33;;;4.80;99.90;;;;;;4961178;28;20065;-49
2022/01/29 02:38:49;;;;;;;4.22;1.55;;;4.80;99.90;;;;;;4974215;28;20525;-47
2022/01/29 02:41:15;;;;;;;4.78;2.03;;;4.80;99.90;;;;;;5007433;28;20022;-51
2022/01/29 02:43:46;;;;;;;5.05;1.85;;;4.70;99.90;;;;;;5063829;28;20074;-47
2022/01/29 02:46:41;;;;;;;3.80;1.73;;;4.70;99.90;;;;;;5073961;28;20085;-51
2022/01/29 02:49:07;;;;;;;6.47;2.38;;;4.80;99.90;;;;;;5070351;28;20094;-52
2022/01/29 02:51:33;;;;;;;10.10;3.05;;;4.80;99.90;;;;;;5072066;28;20411;-48
2022/01/29 02:53:59;;;;;;;5.60;1.67;;;4.90;99.90;;;;;;5072024;28;20028;-47
2022/01/29 02:56:25;;;;;;;6.22;1.85;;;4.90;99.90;;;;;;5025651;28;20499;-49
2022/01/29 02:58:51;;;;;;;5.53;1.67;;;4.80;99.90;;;;;;5070042;28;20044;-49
2022/01/29 03:01:19;;;;;;;8.18;2.28;;;4.90;99.90;;;;;;5073947;28;20119;-48
2022/01/29 03:03:45;;;;;;;4.20;1.80;;;4.90;99.90;;;;;;5069840;28;20037;-51
2022/01/29 03:06:10;;;;;;;6.35;2.13;;;4.80;99.90;;;;;;5073615;28;20510;-49
2022/01/29 03:08:38;;;;;;;4.72;2.13;;;4.90;99.90;;;;;;5075635;28;20036;-48
2022/01/29 03:11:05;;;;;;;5.07;1.85;;;4.80;99.90;;;;;;5034608;28;20089;-49
2022/01/29 03:13:31;;;;;;;2.95;1.30;;;4.90;99.90;;;;;;5071987;28;20064;-52
2022/01/29 03:15:56;;;;;;;4.18;2.20;;;4.90;99.90;;;;;;5070520;28;20120;-49
2022/01/29 03:18:23;;;;;;;4.80;1.35;;;4.80;99.90;;;;;;5040252;28;20531;-48
2022/01/29 03:20:49;;;;;;;5.95;2.13;;;4.80;99.90;;;;;;5072237;28;20036;-49
2022/01/29 03:23:15;;;;;;;6.30;1.77;;;4.90;99.90;;;;;;5069905;28;20491;-48
2022/01/29 03:25:40;;;;;;;6.85;1.80;;;4.80;99.90;;;;;;5054112;28;20404;-49
2022/01/29 03:28:06;;;;;;;6.30;2.25;;;4.80;99.90;;;;;;5067634;28;20033;-49
2022/01/29 03:30:32;;;;;;;8.05;2.08;;;4.90;99.90;;;;;;5076864;28;20565;-60
2022/01/29 03:32:58;;;;;;;3.65;1.55;;;4.80;99.90;;;;;;5071737;28;20043;-53
2022/01/29 03:35:24;;;;;;;7.70;3.30;;;4.70;99.90;;;;;;5074599;28;20071;-48
2022/01/29 03:37:50;;;;;;;5.57;2.65;;;4.70;99.90;;;;;;5032448;28;20497;-51
2022/01/29 03:40:15;;;;;;;9.43;2.67;;;4.70;99.90;;;;;;5073112;28;20025;-48
2022/01/29 03:42:57;;;;;;;5.00;2.03;;;4.80;99.90;;;;;;5071366;28;20029;-50
2022/01/29 03:45:23;;;;;;;10.50;2.30;;;4.90;99.90;;;;;;5072922;28;20123;-52
2022/01/29 03:47:48;;;;;;;6.45;2.20;;;4.80;99.90;;;;;;5071868;28;20127;-49
2022/01/29 03:50:14;;;;;;;8.30;2.13;;;4.80;99.90;;;;;;5037023;28;20036;-49
2022/01/29 03:52:40;;;;;;;6.38;1.83;;;4.80;99.90;;;;;;5068587;28;20369;-49
2022/01/29 03:55:06;;;;;;;7.18;2.28;;;4.80;99.90;;;;;;5073670;28;20491;-50
2022/01/29 03:57:31;;;;;;;7.05;2.28;;;4.80;99.90;;;;;;5019981;28;20094;-48
2022/01/29 03:59:57;;;;;;;6.45;2.10;;;4.70;99.90;;;;;;5067940;28;20035;-49
2022/01/29 04:02:23;;;;;;;7.78;2.00;;;4.70;99.90;;;;;;5069134;28;20036;-47
2022/01/29 04:04:49;;;;;;;10.88;3.15;;;4.70;99.90;;;;;;5053077;28;20399;-48
2022/01/29 04:07:14;;;;;;;7.05;2.60;;;4.70;99.90;;;;;;5069578;28;20433;-50
2022/01/29 04:09:47;;;;;;;14.65;3.03;;;4.80;99.90;;;;;;5043139;28;20050;-50
2022/01/29 04:12:14;;;;;;;7.90;2.60;;;4.70;99.90;;;;;;5070585;28;20093;-48
2022/01/29 04:14:39;;;;;;;7.72;2.60;;;4.70;99.90;;;;;;5066975;28;20044;-50
2022/01/29 04:17:05;;;;;;;8.85;1.98;;;4.70;99.90;;;;;;5074280;28;20111;-47
2022/01/29 04:19:32;;;;;;;7.00;1.88;;;4.70;99.90;;;;;;5070701;28;20495;-48
2022/01/29 04:21:58;;;;;;;3.35;1.67;;;4.80;99.90;;;;;;5073447;28;20067;-50
2022/01/29 04:24:24;;;;;;;8.85;2.65;;;4.70;99.90;;;;;;5069310;28;20067;-48
2022/01/29 04:26:49;;;;;;;4.05;2.13;;;4.70;99.90;;;;;;5073386;28;20028;-47
2022/01/29 04:29:16;;;;;;;6.88;2.63;;;4.70;99.90;;;;;;5021040;28;20097;-50
2022/01/29 04:31:59;;;;;;;6.10;2.38;;;4.70;99.90;;;;;;5071907;28;20063;-48
2022/01/29 04:34:25;;;;;;;5.10;1.75;;;4.70;99.90;;;;;;5016955;28;20036;-46
2022/01/29 04:36:51;;;;;;;10.10;2.55;;;4.70;99.90;;;;;;5070649;28;20167;-50
2022/01/29 04:39:17;;;;;;;10.50;2.30;;;4.60;99.90;;;;;;5055342;28;20029;-50
2022/01/29 04:41:42;;;;;;;8.43;2.15;;;4.80;99.90;;;;;;5070164;28;20024;-48
2022/01/29 04:44:08;;;;;;;5.78;2.30;;;4.60;99.90;;;;;;5072810;28;20403;-49
2022/01/29 04:46:34;;;;;;;6.63;2.03;;;4.70;99.90;;;;;;5054535;28;20114;-48
2022/01/29 04:49:00;;;;;;;7.03;2.45;;;4.70;99.90;;;;;;5019193;28;20049;-51
2022/01/29 04:51:26;;;;;;;7.85;2.67;;;4.70;99.90;;;;;;5070350;28;20386;-50
2022/01/29 04:53:51;;;;;;;8.13;3.35;;;4.80;99.90;;;;;;5034347;28;20044;-49
2022/01/29 04:56:17;;;;;;;9.77;2.88;;;4.70;99.90;;;;;;5054937;28;20087;-49
2022/01/29 04:58:43;;;;;;;3.15;1.90;;;4.70;99.90;;;;;;5070617;28;20060;-49
2022/01/29 05:01:09;;;;;;;8.30;2.72;;;4.60;99.90;;;;;;5068314;28;20028;-50
2022/01/29 05:03:35;;;;;;;6.72;2.28;;;4.60;99.90;;;;;;5053150;28;20078;-47
2022/01/29 05:06:01;;;;;;;6.22;2.22;;;4.60;99.90;;;;;;5041007;28;20032;-50
2022/01/29 05:08:27;;;;;;;5.07;2.40;;;4.50;99.90;;;;;;5072057;28;20059;-48
2022/01/29 05:10:54;;;;;;;7.63;2.15;;;4.60;99.90;;;;;;5014186;28;20048;-51
2022/01/29 05:13:25;;;;;;;5.43;2.20;;;4.60;99.90;;;;;;5031930;28;20083;-48
2022/01/29 05:29:17;;;;;;;8.32;2.58;;;4.40;99.90;;;;;;5057413;28;20043;-51
2022/01/29 05:31:43;;;;;;;8.35;2.95;;;4.30;99.90;;;;;;5011230;28;20041;-49
2022/01/29 05:34:09;;;;;;;8.40;2.78;;;4.20;99.90;;;;;;4951269;28;20050;-47
2022/01/29 05:36:35;;;;;;;13.07;2.75;;;4.20;99.90;;;;;;4953774;28;20061;-47
2022/01/29 05:39:01;;;;;;;5.70;2.50;;;4.30;99.90;;;;;;4862345;28;20113;-49
2022/01/29 05:41:28;;;;;;;7.47;2.13;;;4.30;99.90;;;;;;4968010;28;20546;-47
2022/01/29 05:43:54;;;;;;;5.03;2.30;;;4.30;99.90;;;;;;4962856;28;20050;-48
2022/01/29 05:46:20;;;;;;;8.98;2.95;;;4.30;99.90;;;;;;4944623;28;20515;-57
2022/01/29 05:48:46;;;;;;;6.60;2.20;;;4.30;99.90;;;;;;4916083;29;20075;-53
2022/01/29 05:51:12;;;;;;;9.35;2.35;;;4.20;99.90;;;;;;4964447;28;20047;-47
2022/01/29 05:53:38;;;;;;;5.15;2.20;;;4.30;99.90;;;;;;4946098;28;20138;-50
2022/01/29 05:56:04;;;;;;;10.43;2.65;;;4.20;99.90;;;;;;4955178;28;20130;-49
2022/01/29 05:58:30;;;;;;;7.88;2.88;;;4.10;99.90;;;;;;4954459;28;20047;-51
2022/01/29 06:00:56;;;;;;;9.27;3.40;;;4.00;99.90;;;;;;4957950;28;20054;-50
2022/01/29 06:03:22;;;;;;;4.57;2.63;;;3.90;99.90;;;;;;4999015;28;20041;-50
2022/01/29 06:05:48;;;;;;;6.47;1.75;;;;;;;;;;5054132;28;20052;-50
2022/01/29 06:08:14;;;;;;;7.43;2.47;;;3.70;99.90;;;;;;5070833;28;20029;-50
2022/01/29 06:10:39;;;;;;;4.13;1.40;;;3.70;99.90;;;;;;5069840;28;20028;-46
2022/01/29 06:13:09;;;;;;;3.60;1.30;;;3.60;99.90;;;;;;5071424;28;20036;-49
2022/01/29 06:15:39;;;;;;;5.88;1.73;;;3.60;99.90;;;;;;5066279;28;20480;-47
2022/01/29 06:18:06;;;;;;;5.63;2.20;;;3.50;99.90;;;;;;5072588;28;20039;-50
2022/01/29 06:20:33;;;;;;;6.05;3.17;;;3.60;99.90;;;;;;5071707;28;20115;-48
2022/01/29 06:22:59;;;;;;;9.43;3.50;;;3.80;99.90;;;;;;5074308;28;20399;-50
2022/01/29 06:25:25;;;;;;;6.93;2.60;;;3.80;99.90;;;;;;4985770;28;20417;-49
2022/01/29 06:27:51;;;;;;;5.65;2.22;;;3.90;99.90;;;;;;5013532;28;20048;-48
2022/01/29 06:30:17;;;;;;;5.78;2.00;;;3.90;99.90;;;;;;5022814;28;20038;-48
2022/01/29 06:32:43;;;;;;;11.77;6.22;;;4.00;99.90;;;;;;5012798;28;20041;-49
2022/01/29 06:35:09;;;;;;;9.82;4.10;;;4.10;99.90;;;;;;5010257;28;20100;-49
2022/01/29 06:37:35;;;;;;;5.32;3.03;;;4.20;99.90;;;;;;5005861;28;20030;-49
2022/01/29 06:40:02;;;;;;;9.15;3.25;;;;;;;;;;4992774;28;20041;-52
2022/01/29 06:42:28;;;;;;;6.38;2.90;;;;;;;;;;5007209;28;20437;-47
2022/01/29 06:44:54;;;;;;;7.38;2.63;;;8.40;99.90;;;;;;5012501;28;20060;-48
2022/01/29 06:47:20;;;;;;;14.27;7.15;;;;;;;;;;5001625;28;20504;-50
2022/01/29 06:49:46;;;;;;;81.97;46.40;;;11.50;99.90;;;;;;5021172;28;20029;-48
2022/01/29 06:52:12;;;;;;;11.88;5.60;;;;;;;;;;4955242;28;20512;-51
2022/01/29 06:54:38;;;;;;;10.40;7.32;;;;;;;;;;5014612;28;20037;-52
2022/01/29 06:57:04;;;;;;;9.70;4.68;;;12.70;92.70;;;;;;5063139;28;20044;-47
2022/01/29 06:59:30;;;;;;;12.35;6.47;;;12.00;92.40;;;;;;5028295;28;20446;-49
2022/01/29 07:01:56;;;;;;;12.07;4.10;;;12.90;93.20;;;;;;5072687;28;20031;-48
2022/01/29 07:04:21;;;;;;;8.38;3.38;;;12.40;91.60;;;;;;5070958;28;20115;-48
2022/01/29 07:06:47;;;;;;;8.32;4.20;;;13.50;91.40;;;;;;5020940;28;20047;-50
2022/01/29 07:09:13;;;;;;;9.00;3.88;;;14.30;91.40;;;;;;5071940;28;20562;-52
2022/01/29 07:11:41;;;;;;;8.55;4.13;;;15.70;88.50;;;;;;5070888;28;20040;-48
2022/01/29 07:14:07;;;;;;;14.20;6.55;;;16.90;86.10;;;;;;5068903;28;20048;-48
2022/01/29 07:16:35;;;;;;;24.08;14.18;;;18.40;82.80;;;;;;5074430;28;20662;-52
2022/01/29 07:19:03;;;;;;;15.43;8.38;;;18.70;79.90;;;;;;5071008;28;20484;-50
2022/01/29 07:21:29;;;;;;;18.52;10.65;;;18.60;77.20;;;;;;5069458;28;20032;-49
2022/01/29 07:23:54;;;;;;;13.65;6.80;;;18.70;74.80;;;;;;5067252;28;20178;-47
2022/01/29 07:26:20;;;;;;;14.15;8.95;;;19.00;73.80;;;;;;5074305;28;20467;-51
2022/01/29 07:28:46;;;;;;;18.05;12.18;;;19.70;72.90;;;;;;5068227;28;20380;-48
2022/01/29 07:31:12;;;;;;;12.20;8.02;;;18.60;71.60;;;;;;5042049;28;20095;-50
2022/01/29 07:33:38;;;;;;;5.10;3.85;;;19.20;72.70;;;;;;5002165;28;20123;-53
2022/01/29 07:36:04;;;;;;;8.55;4.70;;;17.90;71.40;;;;;;5021092;28;20034;-51
2022/01/29 07:38:30;;;;;;;8.95;6.65;;;18.70;92.00;;;;;;5025555;28;20588;-49
2022/01/29 07:40:56;;;;;;;8.65;4.75;;;18.90;70.90;;;;;;4948830;28;20132;-49
2022/01/29 07:43:21;;;;;;;7.00;3.60;;;18.50;72.00;;;;;;5026798;28;20118;-50
2022/01/29 07:45:47;;;;;;;6.43;2.85;;;18.30;83.90;;;;;;4990238;28;20034;-51
2022/01/29 07:48:13;;;;;;;13.25;9.25;;;;;;;;;;5039556;28;20076;-50
2022/01/29 07:50:39;;;;;;;7.97;6.60;;;;;;;;;;5033893;28;20065;-53
2022/01/29 07:53:05;;;;;;;90.60;50.50;;;18.60;99.60;;;;;;5014274;28;20034;-50
2022/01/29 07:55:31;;;;;;;356.33;194.55;;;17.60;77.20;;;;;;5000356;28;20115;-50
2022/01/29 07:57:58;;;;;;;310.85;157.57;;;16.90;71.50;;;;;;5008302;28;20037;-49
2022/01/29 08:00:24;;;;;;;23.67;14.85;;;16.80;71.30;;;;;;5035188;28;20049;-50
2022/01/29 08:02:50;;;;;;;12.48;11.38;;;16.40;71.60;;;;;;4990172;28;20480;-50
2022/01/29 08:05:16;;;;;;;9.98;8.90;;;;;;;;;;4985950;28;20041;-49
2022/01/29 08:07:42;;;;;;;14.45;9.70;;;17.00;93.00;;;;;;5071806;28;20032;-52
2022/01/29 08:10:08;;;;;;;17.25;13.82;;;15.50;71.60;;;;;;5071688;28;20484;-52
2022/01/29 08:12:35;;;;;;;28.05;16.40;;;15.30;73.30;;;;;;5060213;28;20484;-48
2022/01/29 08:15:02;;;;;;;31.83;17.92;;;15.70;72.60;;;;;;5041059;28;20062;-51
2022/01/29 08:17:28;;;;;;;19.25;13.63;;;15.80;73.70;;;;;;5068704;28;20756;-53
2022/01/29 08:19:53;;;;;;;49.40;44.88;;;15.40;72.40;;;;;;5067175;28;20025;-48
2022/01/29 08:22:19;;;;;;;62.05;35.45;;;15.20;72.50;;;;;;5070383;28;20035;-50
2022/01/29 08:24:45;;;;;;;24.10;20.15;;;15.90;72.80;;;;;;5071046;28;20126;-49
2022/01/29 08:27:11;;;;;;;39.20;17.85;;;15.30;73.30;;;;;;5068945;28;20035;-52
2022/01/29 08:29:37;;;;;;;54.08;26.95;;;14.90;71.80;;;;;;5069183;28;20028;-49
2022/01/29 08:32:03;;;;;;;68.03;38.03;;;14.10;74.60;;;;;;5068768;28;20031;-52
2022/01/29 08:34:29;;;;;;;18.90;10.15;;;14.00;75.10;;;;;;5035822;28;20581;-50
2022/01/29 08:37:00;;;;;;;11.02;8.80;;;13.90;75.30;;;;;;5035036;28;20052;-48
2022/01/29 08:39:26;;;;;;;7.68;6.82;;;14.90;75.50;;;;;;5051198;28;20114;-51
2022/01/29 08:41:52;;;;;;;19.58;15.63;;;13.80;76.90;;;;;;5050655;28;20191;-49
2022/01/29 08:44:17;;;;;;;19.70;13.13;;;12.30;76.60;;;;;;5011306;28;20035;-51
2022/01/29 08:46:43;;;;;;;9.48;8.23;;;12.00;78.20;;;;;;5034194;28;20041;-52
2022/01/29 08:49:09;;;;;;;11.13;7.25;;;12.00;79.10;;;;;;5035350;28;20408;-52
2022/01/29 08:51:35;;;;;;;17.10;12.48;;;12.70;78.40;;;;;;5061452;28;20033;-54
2022/01/29 08:54:01;;;;;;;12.55;9.60;;;12.40;77.90;;;;;;5016600;28;20068;-54
2022/01/29 08:56:27;;;;;;;17.23;11.80;;;12.40;77.90;;;;;;5069983;28;20044;-53
2022/01/29 08:58:53;;;;;;;8.15;3.05;;;12.60;77.60;;;;;;5068790;28;20029;-54
2022/01/29 09:01:18;;;;;;;11.20;6.70;;;11.70;78.10;;;;;;5036719;28;20060;-53
2022/01/29 09:03:44;;;;;;;7.03;6.32;;;11.10;79.00;;;;;;5069106;28;20516;-53
2022/01/29 09:06:10;;;;;;;8.25;7.65;;;11.00;80.20;;;;;;5066315;28;20046;-58
2022/01/29 09:08:38;;;;;;;6.50;6.00;;;11.50;80.00;;;;;;5035795;28;20039;-50
2022/01/29 09:11:05;;;;;;;9.88;7.15;;;11.60;80.00;;;;;;5066749;28;20059;-55
2022/01/29 09:13:31;;;;;;;8.57;7.25;;;12.00;78.70;;;;;;5070112;28;20105;-56
2022/01/29 09:15:57;;;;;;;7.60;3.63;;;11.70;79.50;;;;;;5035827;28;20045;-52
2022/01/29 09:18:23;;;;;;;8.07;3.10;;;;;;;;;;5061341;28;20033;-56
2022/01/29 09:20:49;;;;;;;13.77;9.52;;;9.50;81.00;;;;;;5068516;28;20169;-54
2022/01/29 09:23:15;;;;;;;10.88;10.05;;;10.80;82.90;;;;;;5069846;28;20542;-54
2022/01/29 09:25:42;;;;;;;10.88;9.40;;;11.10;80.90;;;;;;5035770;28;20044;-59
2022/01/29 09:28:09;;;;;;;10.95;10.07;;;12.50;97.80;;;;;;5068838;28;20021;-59
2022/01/29 09:30:35;;;;;;;9.93;9.07;;;12.60;97.70;;;;;;5068013;28;20491;-52
2022/01/29 09:33:01;;;;;;;8.82;8.10;;;12.40;97.50;;;;;;5065661;28;20021;-53
2022/01/29 09:35:28;;;;;;;24.30;22.90;;;13.10;78.00;;;;;;5070613;28;20124;-55
2022/01/29 09:37:54;;;;;;;18.92;17.23;;;14.40;76.40;;;;;;5036597;28;20048;-57
2022/01/29 09:40:21;;;;;;;29.23;26.42;;;13.20;76.10;;;;;;5063335;28;20025;-55
2022/01/29 09:42:49;;;;;;;12.73;10.65;;;12.70;76.90;;;;;;5066397;28;20025;-55
2022/01/29 09:45:17;;;;;;;11.57;10.65;;;14.60;77.20;;;;;;5071558;28;20052;-56
2022/01/29 09:47:46;;;;;;;85.88;68.35;;;15.40;84.40;;;;;;5057523;28;20063;-56
2022/01/29 09:50:14;;;;;;;26.45;23.90;;;14.90;77.90;;;;;;5066859;28;20518;-53
2022/01/29 09:52:40;;;;;;;14.02;13.00;;;14.00;76.90;;;;;;5008293;28;20273;-56
2022/01/29 09:55:10;;;;;;;32.13;24.45;;;14.90;87.20;;;;;;5012593;28;20149;-55
2022/01/29 09:57:37;;;;;;;18.77;17.48;;;14.80;75.30;;;;;;5009717;28;20041;-56
2022/01/29 10:00:06;;;;;;;21.33;19.13;;;15.20;74.70;;;;;;5005110;28;20054;-49
2022/01/29 10:02:32;;;;;;;127.40;62.60;;;13.00;75.60;;;;;;4976618;28;20046;-48
2022/01/29 10:04:58;;;;;;;21.73;17.50;;;12.50;77.40;;;;;;5001638;28;20038;-53
2022/01/29 10:07:26;;;;;;;27.40;21.40;;;11.90;79.60;;;;;;5007336;28;20426;-49
2022/01/29 10:09:53;;;;;;;26.65;24.55;;;;;;;;;;5010213;28;20134;-51
2022/01/29 10:12:23;;;;;;;30.13;18.15;;;12.20;88.40;;;;;;5012400;28;20104;-53
2022/01/29 10:14:55;;;;;;;82.60;53.35;;;12.90;80.70;;;;;;5010177;28;20033;-51
2022/01/29 10:17:39;;;;;;;;;;;11.90;80.00;;;;;;5008205;28;20069;-53
2022/01/29 10:20:23;;;;;;;32.28;24.90;;;11.30;81.30;;;;;;5003628;28;19906;-56
2022/01/29 10:22:51;;;;;;;136.85;67.43;;;11.90;80.80;;;;;;5012305;28;20044;-53
2022/01/29 10:25:20;;;;;;;39.60;18.10;;;11.60;81.50;;;;;;5033461;28;20060;-54
2022/01/29 10:28:09;;;;;;;150.05;50.80;;;11.10;80.40;;;;;;4997190;28;20044;-52
2022/01/29 10:30:36;;;;;;;23.02;21.35;;;;;;;;;;5038246;28;20041;-51
2022/01/29 10:33:27;;;;;;;39.70;27.60;;;11.80;99.90;;;;;;4994427;28;20537;-54
2022/01/29 10:35:59;;;;;;;112.90;47.75;;;11.50;83.00;;;;;;5025249;28;20085;-52
2022/01/29 10:38:45;;;;;;;49.75;35.05;;;11.10;83.40;;;;;;5028409;28;20116;-54
2022/01/29 10:41:12;;;;;;;56.72;31.08;;;11.40;82.20;;;;;;4999930;28;20129;-52
2022/01/29 10:44:12;;;;;;;110.03;53.92;;;12.50;82.00;;;;;;5039689;28;20025;-52
2022/01/29 10:46:40;;;;;;;27.70;25.08;;;12.80;80.50;;;;;;5039340;28;20041;-52
2022/01/29 10:49:07;;;;;;;39.13;36.97;;;12.40;83.20;;;;;;5029323;28;20089;-49
2022/01/29 10:51:34;;;;;;;48.67;45.47;;;13.20;93.50;;;;;;4988754;28;20121;-52
2022/01/29 10:54:19;;;;;;;86.68;23.88;;;12.60;80.20;;;;;;4988745;28;20084;-51
2022/01/29 10:56:54;;;;;;;33.45;31.23;;;11.70;80.00;;;;;;4972956;28;20065;-55
2022/01/29 10:59:21;;;;;;;52.13;31.92;;;12.80;80.90;;;;;;4985847;28;20134;-56
2022/01/29 11:01:51;;;;;;;26.80;24.67;;;12.20;80.10;;;;;;4986619;28;20032;-49
2022/01/29 11:04:17;;;;;;;64.10;58.92;;;12.70;79.80;;;;;;4956638;28;20206;-50
2022/01/29 11:06:45;;;;;;;40.28;37.58;;;13.30;78.70;;;;;;4990908;28;20132;-53
2022/01/29 11:09:12;;;;;;;64.65;32.45;;;13.80;78.00;;;;;;4990483;28;20035;-55
2022/01/29 11:11:40;;;;;;;34.03;32.08;;;14.40;79.20;;;;;;4990622;28;20125;-51
2022/01/29 11:14:08;;;;;;;18.67;16.95;;;14.40;76.40;;;;;;4991731;28;20038;-53
2022/01/29 11:16:35;;;;;;;15.55;9.10;;;14.20;76.70;;;;;;4971769;28;20157;-53
2022/01/29 11:19:02;;;;;;;24.20;15.18;;;14.30;78.10;;;;;;4989234;28;20037;-50
2022/01/29 11:21:29;;;;;;;100.55;38.55;;;12.30;77.80;;;;;;4992377;28;20029;-51
2022/01/29 11:23:55;;;;;;;80.35;41.17;;;11.80;80.40;;;;;;4978611;28;20546;-50
2022/01/29 11:26:21;;;;;;;114.07;39.97;;;12.30;82.60;;;;;;5009870;28;20073;-51
2022/01/29 11:28:47;;;;;;;82.38;34.17;;;12.00;81.10;;;;;;5061877;28;20059;-50
2022/01/29 11:31:16;;;;;;;60.63;23.67;;;11.90;82.30;;;;;;5068873;28;20479;-51
2022/01/29 11:33:57;;;;;;;29.90;14.35;;;11.80;82.00;;;;;;5068619;28;20032;-54
2022/01/29 11:36:48;;;;;;;23.77;12.23;;;11.30;82.80;;;;;;5072850;28;20117;-53
2022/01/29 11:39:28;;;;;;;9.48;3.40;;;11.60;82.60;;;;;;5069400;28;20024;-54
2022/01/29 11:42:13;;;;;;;48.83;25.23;;;11.50;81.40;;;;;;5067583;28;20124;-54
2022/01/29 11:44:43;;;;;;;62.05;34.35;;;11.30;82.40;;;;;;5069042;28;20021;-49
2022/01/29 11:47:25;;;;;;;47.03;22.25;;;12.10;81.40;;;;;;5066634;28;20032;-53
2022/01/29 11:49:52;;;;;;;29.70;13.57;;;12.30;81.30;;;;;;5066711;28;20036;-51
2022/01/29 11:52:25;;;;;;;30.48;14.40;;;11.30;82.20;;;;;;5069054;28;20653;-53
2022/01/29 11:55:02;;;;;;;30.35;19.63;;;11.30;81.80;;;;;;5068464;28;20035;-55
2022/01/29 11:57:27;;;;;;;6.55;5.65;;;11.40;83.20;;;;;;5069564;28;20469;-52
2022/01/29 11:59:53;;;;;;;19.63;5.80;;;11.40;81.90;;;;;;5027244;28;20076;-51
2022/01/29 12:02:19;;;;;;;8.30;5.95;;;10.70;81.20;;;;;;5070073;28;20123;-52
2022/01/29 12:04:52;;;;;;;12.50;8.27;;;10.60;83.60;;;;;;5068980;28;20025;-52
2022/01/29 12:07:39;;;;;;;15.35;9.52;;;11.10;84.40;;;;;;5067502;28;20020;-52
2022/01/29 12:10:11;;;;;;;8.02;5.55;;;11.70;82.90;;;;;;5069586;28;20032;-51
2022/01/29 12:12:39;;;;;;;12.52;9.55;;;11.70;80.00;;;;;;5061584;28;20045;-51
2022/01/29 12:15:11;;;;;;;13.52;6.88;;;11.70;81.40;;;;;;5070499;28;20032;-53
2022/01/29 12:17:51;;;;;;;13.18;6.13;;;12.30;81.20;;;;;;5064598;28;21159;-51
2022/01/29 12:20:22;;;;;;;14.63;8.88;;;12.90;79.30;;;;;;5050428;28;20425;-51
2022/01/29 12:22:49;;;;;;;28.50;13.80;;;12.50;79.30;;;;;;5071419;28;20020;-53
2022/01/29 12:25:18;;;;;;;7.15;4.20;;;12.80;79.20;;;;;;5068564;28;20510;-51
2022/01/29 12:27:49;;;;;;;15.20;8.02;;;12.60;78.30;;;;;;5068880;28;20028;-52
2022/01/29 12:30:20;;;;;;;15.48;6.82;;;12.50;79.70;;;;;;5063498;28;20086;-52
2022/01/29 12:32:59;;;;;;;8.15;4.40;;;11.90;79.20;;;;;;5069801;28;20025;-53
2022/01/29 12:35:49;;;;;;;13.68;7.05;;;12.40;80.30;;;;;;5066271;28;20496;-52
2022/01/29 12:38:22;;;;;;;5.47;2.60;;;11.80;79.70;;;;;;4993925;28;20565;-51
2022/01/29 12:40:55;;;;;;;6.28;3.90;;;12.10;76.20;;;;;;4945013;28;20125;-49
2022/01/29 12:44:01;;;;;;;6.15;3.45;;;11.60;77.30;;;;;;5005076;28;20042;-54
2022/01/29 12:46:29;;;;;;;3.72;2.70;;;11.30;76.20;;;;;;5017396;28;20049;-51
2022/01/29 12:49:07;;;;;;;7.05;4.18;;;11.30;77.00;;;;;;5019591;28;20041;-51
2022/01/29 12:51:48;;;;;;;10.27;2.25;;;10.90;76.70;;;;;;5012686;28;20107;-51
2022/01/29 12:54:14;;;;;;;5.10;2.53;;;10.90;76.30;;;;;;5016596;28;20100;-50
2022/01/29 12:56:40;;;;;;;7.63;4.30;;;11.90;77.20;;;;;;4992083;28;20038;-52
2022/01/29 12:59:11;;;;;;;7.05;3.15;;;11.90;76.50;;;;;;5010432;28;20037;-51
2022/01/29 13:01:40;;;;;;;6.20;2.90;;;12.20;78.70;;;;;;5006942;28;20041;-50
2022/01/29 13:04:11;;;;;;;6.22;3.50;;;11.50;77.10;;;;;;5006746;28;20045;-51
2022/01/29 13:06:37;;;;;;;6.00;4.22;;;10.70;77.70;;;;;;5009036;28;20044;-53